sensor_id;sensor_type;location;lat;lon;timestamp;temperature;humidity
7331;DHT22;3706;49.198;7.064;2023-09-30T00:00:47;13.50;99.90
7331;DHT22;3706;49.198;7.064;2023-09-30T00:03:14;13.60;99.90
7331;DHT22;3706;49.198;7.064;2023-09-30T00:05:41;13.50;99.90
7331;DHT22;3706;49.198;7.064;2023-09-30T00:08:08;13.50;99.90
7331;DHT22;3706;49.198;7.064;2023-09-30T00:10:36;13.50;99.90
7331;DHT22;3706;49.198;7.064;2023-09-30T00:13:03;13.50;99.90
7331;DHT22;3706;49.198;7.064;2023-09-30T00:15:32;13.50;99.90
7331;DHT22;3706;49.198;7.064;2023-09-30T00:17:59;13.50;99.90
7331;DHT22;3706;49.198;7.064;2023-09-30T00:20:26;13.50;99.90
7331;DHT22;3706;49.198;7.064;2023-09-30T00:22:54;13.50;99.90
7331;DHT22;3706;49.198;7.064;2023-09-30T00:25:21;13.40;99.90
7331;DHT22;3706;49.198;7.064;2023-09-30T00:27:49;13.30;99.90
7331;DHT22;3706;49.198;7.064;2023-09-30T00:30:16;13.20;99.90
7331;DHT22;3706;49.198;7.064;2023-09-30T00:32:43;13.20;99.90
7331;DHT22;3706;49.198;7.064;2023-09-30T00:35:10;13.10;99.90
7331;DHT22;3706;49.198;7.064;2023-09-30T00:37:37;13.10;99.90
7331;DHT22;3706;49.198;7.064;2023-09-30T00:40:05;13.00;99.90
7331;DHT22;3706;49.198;7.064;2023-09-30T00:42:33;13.00;99.90
7331;DHT22;3706;49.198;7.064;2023-09-30T00:45:01;12.90;99.90
7331;DHT22;3706;49.198;7.064;2023-09-30T00:47:30;12.90;99.90
7331;DHT22;3706;49.198;7.064;2023-09-30T00:49:59;12.80;99.90
7331;DHT22;3706;49.198;7.064;2023-09-30T00:52:27;12.70;99.90
7331;DHT22;3706;49.198;7.064;2023-09-30T00:54:54;12.70;99.90
7331;DHT22;3706;49.198;7.064;2023-09-30T00:57:21;12.60;99.90
7331;DHT22;3706;49.198;7.064;2023-09-30T00:59:50;12.60;99.90
7331;DHT22;3706;49.198;7.064;2023-09-30T01:02:19;12.50;99.90
7331;DHT22;3706;49.198;7.064;2023-09-30T01:04:46;12.50;99.90
7331;DHT22;3706;49.198;7.064;2023-09-30T01:07:13;12.40;99.90
7331;DHT22;3706;49.198;7.064;2023-09-30T01:09:40;12.40;99.90
7331;DHT22;3706;49.198;7.064;2023-09-30T01:12:08;12.30;99.90
7331;DHT22;3706;49.198;7.064;2023-09-30T01:14:35;12.30;99.90
7331;DHT22;3706;49.198;7.064;2023-09-30T01:17:04;12.20;99.90
7331;DHT22;3706;49.198;7.064;2023-09-30T01:19:35;12.20;99.90
7331;DHT22;3706;49.198;7.064;2023-09-30T01:22:03;12.10;99.90
7331;DHT22;3706;49.198;7.064;2023-09-30T01:24:31;12.00;99.90
7331;DHT22;3706;49.198;7.064;2023-09-30T01:26:58;11.90;99.90
7331;DHT22;3706;49.198;7.064;2023-09-30T01:29:25;11.90;99.90
7331;DHT22;3706;49.198;7.064;2023-09-30T01:31:52;11.80;99.90
7331;DHT22;3706;49.198;7.064;2023-09-30T01:34:19;11.80;99.90
7331;DHT22;3706;49.198;7.064;2023-09-30T01:36:46;11.80;99.90
7331;DHT22;3706;49.198;7.064;2023-09-30T01:39:14;11.80;99.90
7331;DHT22;3706;49.198;7.064;2023-09-30T01:41:41;11.70;99.90
7331;DHT22;3706;49.198;7.064;2023-09-30T01:44:09;11.70;99.90
7331;DHT22;3706;49.198;7.064;2023-09-30T01:46:35;11.70;99.90
7331;DHT22;3706;49.198;7.064;2023-09-30T01:49:03;11.60;99.90
7331;DHT22;3706;49.198;7.064;2023-09-30T01:51:30;11.60;99.90
7331;DHT22;3706;49.198;7.064;2023-09-30T01:53:57;11.50;99.90
7331;DHT22;3706;49.198;7.064;2023-09-30T01:56:25;11.40;99.90
7331;DHT22;3706;49.198;7.064;2023-09-30T01:58:52;11.30;99.90
7331;DHT22;3706;49.198;7.064;2023-09-30T02:01:20;11.30;99.90
7331;DHT22;3706;49.198;7.064;2023-09-30T02:03:47;11.40;99.90
7331;DHT22;3706;49.198;7.064;2023-09-30T02:06:15;11.30;99.90
7331;DHT22;3706;49.198;7.064;2023-09-30T02:08:42;11.20;99.90
7331;DHT22;3706;49.198;7.064;2023-09-30T02:11:10;11.20;99.90
7331;DHT22;3706;49.198;7.064;2023-09-30T02:13:40;11.10;99.90
7331;DHT22;3706;49.198;7.064;2023-09-30T02:16:11;11.20;99.90
7331;DHT22;3706;49.198;7.064;2023-09-30T02:18:39;11.20;99.90
7331;DHT22;3706;49.198;7.064;2023-09-30T02:21:07;11.30;99.90
7331;DHT22;3706;49.198;7.064;2023-09-30T02:23:34;11.40;99.90
7331;DHT22;3706;49.198;7.064;2023-09-30T02:26:01;11.40;99.90
7331;DHT22;3706;49.198;7.064;2023-09-30T02:28:28;11.40;99.90
7331;DHT22;3706;49.198;7.064;2023-09-30T02:30:59;11.40;99.90
7331;DHT22;3706;49.198;7.064;2023-09-30T02:33:26;11.40;99.90
7331;DHT22;3706;49.198;7.064;2023-09-30T02:35:53;11.40;99.90
7331;DHT22;3706;49.198;7.064;2023-09-30T02:38:19;11.30;99.90
7331;DHT22;3706;49.198;7.064;2023-09-30T02:40:48;11.30;99.90
7331;DHT22;3706;49.198;7.064;2023-09-30T02:43:15;11.30;99.90
7331;DHT22;3706;49.198;7.064;2023-09-30T02:45:42;11.30;99.90
7331;DHT22;3706;49.198;7.064;2023-09-30T02:48:11;11.30;99.90
7331;DHT22;3706;49.198;7.064;2023-09-30T02:50:41;11.20;99.90
7331;DHT22;3706;49.198;7.064;2023-09-30T02:53:09;11.20;99.90
7331;DHT22;3706;49.198;7.064;2023-09-30T02:55:36;11.10;99.90
7331;DHT22;3706;49.198;7.064;2023-09-30T02:58:03;11.10;99.90
7331;DHT22;3706;49.198;7.064;2023-09-30T03:00:30;11.00;99.90
7331;DHT22;3706;49.198;7.064;2023-09-30T03:03:00;11.00;99.90
7331;DHT22;3706;49.198;7.064;2023-09-30T03:05:29;11.00;99.90
7331;DHT22;3706;49.198;7.064;2023-09-30T03:07:59;10.90;99.90
7331;DHT22;3706;49.198;7.064;2023-09-30T03:10:26;10.80;99.90
7331;DHT22;3706;49.198;7.064;2023-09-30T03:12:53;10.80;99.90
7331;DHT22;3706;49.198;7.064;2023-09-30T03:15:20;11.00;99.90
7331;DHT22;3706;49.198;7.064;2023-09-30T03:17:48;11.00;99.90
7331;DHT22;3706;49.198;7.064;2023-09-30T03:20:15;11.00;99.90
7331;DHT22;3706;49.198;7.064;2023-09-30T03:22:46;10.90;99.90
7331;DHT22;3706;49.198;7.064;2023-09-30T03:25:15;10.80;99.90
7331;DHT22;3706;49.198;7.064;2023-09-30T03:27:43;10.70;99.90
7331;DHT22;3706;49.198;7.064;2023-09-30T03:30:12;10.60;99.90
7331;DHT22;3706;49.198;7.064;2023-09-30T03:32:40;10.60;99.90
7331;DHT22;3706;49.198;7.064;2023-09-30T03:35:09;10.70;99.90
7331;DHT22;3706;49.198;7.064;2023-09-30T03:37:40;10.80;99.90
7331;DHT22;3706;49.198;7.064;2023-09-30T03:40:09;10.70;99.90
7331;DHT22;3706;49.198;7.064;2023-09-30T03:42:40;10.50;99.90
7331;DHT22;3706;49.198;7.064;2023-09-30T03:45:09;10.40;99.90
7331;DHT22;3706;49.198;7.064;2023-09-30T03:47:37;10.40;99.90
7331;DHT22;3706;49.198;7.064;2023-09-30T03:50:05;10.40;99.90
7331;DHT22;3706;49.198;7.064;2023-09-30T03:52:38;10.50;99.90
7331;DHT22;3706;49.198;7.064;2023-09-30T03:55:06;10.50;99.90
7331;DHT22;3706;49.198;7.064;2023-09-30T03:57:34;10.50;99.90
7331;DHT22;3706;49.198;7.064;2023-09-30T04:00:01;10.40;99.90
7331;DHT22;3706;49.198;7.064;2023-09-30T04:02:31;10.30;99.90
7331;DHT22;3706;49.198;7.064;2023-09-30T04:04:58;10.30;99.90
7331;DHT22;3706;49.198;7.064;2023-09-30T04:07:25;10.20;99.90
7331;DHT22;3706;49.198;7.064;2023-09-30T04:09:54;10.20;99.90
7331;DHT22;3706;49.198;7.064;2023-09-30T04:12:22;10.30;99.90
7331;DHT22;3706;49.198;7.064;2023-09-30T04:14:50;10.30;99.90
7331;DHT22;3706;49.198;7.064;2023-09-30T04:17:18;10.40;99.90
7331;DHT22;3706;49.198;7.064;2023-09-30T04:19:46;10.40;99.90
7331;DHT22;3706;49.198;7.064;2023-09-30T04:22:16;10.50;99.90
7331;DHT22;3706;49.198;7.064;2023-09-30T04:24:44;10.60;99.90
7331;DHT22;3706;49.198;7.064;2023-09-30T04:27:11;10.60;99.90
7331;DHT22;3706;49.198;7.064;2023-09-30T04:29:38;10.70;99.90
7331;DHT22;3706;49.198;7.064;2023-09-30T04:32:08;10.80;99.90
7331;DHT22;3706;49.198;7.064;2023-09-30T04:34:35;10.80;99.90
7331;DHT22;3706;49.198;7.064;2023-09-30T04:37:02;10.80;99.90
7331;DHT22;3706;49.198;7.064;2023-09-30T04:39:29;10.90;99.90
7331;DHT22;3706;49.198;7.064;2023-09-30T04:41:56;10.80;99.90
7331;DHT22;3706;49.198;7.064;2023-09-30T04:44:26;10.70;99.90
7331;DHT22;3706;49.198;7.064;2023-09-30T04:46:56;10.60;99.90
7331;DHT22;3706;49.198;7.064;2023-09-30T04:49:24;10.50;99.90
7331;DHT22;3706;49.198;7.064;2023-09-30T04:51:51;10.50;99.90
7331;DHT22;3706;49.198;7.064;2023-09-30T04:54:18;10.60;99.90
7331;DHT22;3706;49.198;7.064;2023-09-30T04:56:46;10.60;99.90
7331;DHT22;3706;49.198;7.064;2023-09-30T04:59:13;10.60;99.90
7331;DHT22;3706;49.198;7.064;2023-09-30T05:01:40;10.40;99.90
7331;DHT22;3706;49.198;7.064;2023-09-30T05:04:07;10.30;99.90
7331;DHT22;3706;49.198;7.064;2023-09-30T05:06:36;10.20;99.90
7331;DHT22;3706;49.198;7.064;2023-09-30T05:09:03;10.30;99.90
7331;DHT22;3706;49.198;7.064;2023-09-30T05:11:30;10.50;99.90
7331;DHT22;3706;49.198;7.064;2023-09-30T05:13:57;10.50;99.90
7331;DHT22;3706;49.198;7.064;2023-09-30T05:16:25;10.40;99.90
7331;DHT22;3706;49.198;7.064;2023-09-30T05:18:52;10.30;99.90
7331;DHT22;3706;49.198;7.064;2023-09-30T05:21:20;10.30;99.90
7331;DHT22;3706;49.198;7.064;2023-09-30T05:23:48;10.20;99.90
7331;DHT22;3706;49.198;7.064;2023-09-30T05:26:15;10.30;99.90
7331;DHT22;3706;49.198;7.064;2023-09-30T05:28:42;10.30;99.90
7331;DHT22;3706;49.198;7.064;2023-09-30T05:31:09;10.30;99.90
7331;DHT22;3706;49.198;7.064;2023-09-30T05:33:36;10.20;99.90
7331;DHT22;3706;49.198;7.064;2023-09-30T05:36:04;10.20;99.90
7331;DHT22;3706;49.198;7.064;2023-09-30T05:38:31;10.20;99.90
7331;DHT22;3706;49.198;7.064;2023-09-30T05:40:59;10.30;99.90
7331;DHT22;3706;49.198;7.064;2023-09-30T05:43:26;10.30;99.90
7331;DHT22;3706;49.198;7.064;2023-09-30T05:45:54;10.40;99.90
7331;DHT22;3706;49.198;7.064;2023-09-30T05:48:21;10.50;99.90
7331;DHT22;3706;49.198;7.064;2023-09-30T05:50:48;10.50;99.90
7331;DHT22;3706;49.198;7.064;2023-09-30T05:53:15;10.50;99.90
7331;DHT22;3706;49.198;7.064;2023-09-30T05:55:42;10.50;99.90
7331;DHT22;3706;49.198;7.064;2023-09-30T05:58:13;10.60;99.90
7331;DHT22;3706;49.198;7.064;2023-09-30T06:00:41;10.60;99.90
7331;DHT22;3706;49.198;7.064;2023-09-30T06:03:09;10.70;99.90
7331;DHT22;3706;49.198;7.064;2023-09-30T06:05:39;10.80;99.90
7331;DHT22;3706;49.198;7.064;2023-09-30T06:08:08;10.90;99.90
7331;DHT22;3706;49.198;7.064;2023-09-30T06:10:36;10.90;99.90
7331;DHT22;3706;49.198;7.064;2023-09-30T06:13:08;11.00;99.90
7331;DHT22;3706;49.198;7.064;2023-09-30T06:15:38;11.00;99.90
7331;DHT22;3706;49.198;7.064;2023-09-30T06:18:06;11.00;99.90
7331;DHT22;3706;49.198;7.064;2023-09-30T06:20:33;10.90;99.90
7331;DHT22;3706;49.198;7.064;2023-09-30T06:23:00;11.00;99.90
7331;DHT22;3706;49.198;7.064;2023-09-30T06:25:27;11.10;99.90
7331;DHT22;3706;49.198;7.064;2023-09-30T06:27:56;11.10;99.90
7331;DHT22;3706;49.198;7.064;2023-09-30T06:30:23;11.20;99.90
7331;DHT22;3706;49.198;7.064;2023-09-30T06:32:56;11.20;99.90
7331;DHT22;3706;49.198;7.064;2023-09-30T06:35:23;11.20;99.90
7331;DHT22;3706;49.198;7.064;2023-09-30T06:37:51;11.20;99.90
7331;DHT22;3706;49.198;7.064;2023-09-30T06:40:19;11.30;99.90
7331;DHT22;3706;49.198;7.064;2023-09-30T06:42:46;11.40;99.90
7331;DHT22;3706;49.198;7.064;2023-09-30T06:45:12;11.50;99.90
7331;DHT22;3706;49.198;7.064;2023-09-30T06:47:41;11.50;99.90
7331;DHT22;3706;49.198;7.064;2023-09-30T06:50:11;11.70;99.90
7331;DHT22;3706;49.198;7.064;2023-09-30T06:52:42;11.90;99.90
7331;DHT22;3706;49.198;7.064;2023-09-30T06:55:11;12.10;99.90
7331;DHT22;3706;49.198;7.064;2023-09-30T06:57:40;12.30;99.90
7331;DHT22;3706;49.198;7.064;2023-09-30T07:00:08;12.50;99.90
7331;DHT22;3706;49.198;7.064;2023-09-30T07:02:37;12.60;99.90
7331;DHT22;3706;49.198;7.064;2023-09-30T07:05:06;12.70;99.90
7331;DHT22;3706;49.198;7.064;2023-09-30T07:07:35;12.90;99.90
7331;DHT22;3706;49.198;7.064;2023-09-30T07:10:02;13.00;99.90
7331;DHT22;3706;49.198;7.064;2023-09-30T07:12:29;13.10;99.90
7331;DHT22;3706;49.198;7.064;2023-09-30T07:14:57;13.20;99.90
7331;DHT22;3706;49.198;7.064;2023-09-30T07:17:24;13.30;99.90
7331;DHT22;3706;49.198;7.064;2023-09-30T07:19:51;13.40;99.90
7331;DHT22;3706;49.198;7.064;2023-09-30T07:22:18;13.50;99.90
7331;DHT22;3706;49.198;7.064;2023-09-30T07:24:46;13.60;99.90
7331;DHT22;3706;49.198;7.064;2023-09-30T07:27:13;13.80;99.90
7331;DHT22;3706;49.198;7.064;2023-09-30T07:29:40;14.00;99.90
7331;DHT22;3706;49.198;7.064;2023-09-30T07:32:07;14.30;99.90
7331;DHT22;3706;49.198;7.064;2023-09-30T07:34:34;14.50;99.90
7331;DHT22;3706;49.198;7.064;2023-09-30T07:37:01;14.70;99.90
7331;DHT22;3706;49.198;7.064;2023-09-30T07:39:29;14.90;99.90
7331;DHT22;3706;49.198;7.064;2023-09-30T07:41:58;15.10;99.90
7331;DHT22;3706;49.198;7.064;2023-09-30T07:44:25;15.50;99.90
7331;DHT22;3706;49.198;7.064;2023-09-30T07:46:52;15.70;99.90
7331;DHT22;3706;49.198;7.064;2023-09-30T07:49:19;15.90;99.90
7331;DHT22;3706;49.198;7.064;2023-09-30T07:51:45;16.20;99.90
7331;DHT22;3706;49.198;7.064;2023-09-30T07:54:12;16.50;99.90
7331;DHT22;3706;49.198;7.064;2023-09-30T07:56:39;17.00;99.90
7331;DHT22;3706;49.198;7.064;2023-09-30T07:59:08;17.60;99.90
7331;DHT22;3706;49.198;7.064;2023-09-30T08:01:35;18.30;99.90
7331;DHT22;3706;49.198;7.064;2023-09-30T08:04:03;18.90;99.90
7331;DHT22;3706;49.198;7.064;2023-09-30T08:06:30;19.50;99.90
7331;DHT22;3706;49.198;7.064;2023-09-30T08:08:57;20.00;99.90
7331;DHT22;3706;49.198;7.064;2023-09-30T08:11:24;20.30;99.90
7331;DHT22;3706;49.198;7.064;2023-09-30T08:13:53;20.70;99.90
7331;DHT22;3706;49.198;7.064;2023-09-30T08:16:21;21.00;99.90
7331;DHT22;3706;49.198;7.064;2023-09-30T08:18:48;21.50;99.90
7331;DHT22;3706;49.198;7.064;2023-09-30T08:21:15;22.10;99.90
7331;DHT22;3706;49.198;7.064;2023-09-30T08:23:42;22.60;99.90
7331;DHT22;3706;49.198;7.064;2023-09-30T08:26:09;23.20;99.90
7331;DHT22;3706;49.198;7.064;2023-09-30T08:28:37;23.70;99.90
7331;DHT22;3706;49.198;7.064;2023-09-30T08:31:04;24.10;99.90
7331;DHT22;3706;49.198;7.064;2023-09-30T08:33:33;24.40;99.90
7331;DHT22;3706;49.198;7.064;2023-09-30T08:36:02;24.90;99.90
7331;DHT22;3706;49.198;7.064;2023-09-30T08:38:34;25.30;99.90
7331;DHT22;3706;49.198;7.064;2023-09-30T08:41:01;25.70;99.90
7331;DHT22;3706;49.198;7.064;2023-09-30T08:43:29;25.90;99.90
7331;DHT22;3706;49.198;7.064;2023-09-30T08:45:58;26.20;99.90
7331;DHT22;3706;49.198;7.064;2023-09-30T08:48:26;26.40;99.90
7331;DHT22;3706;49.198;7.064;2023-09-30T08:50:55;26.60;99.90
7331;DHT22;3706;49.198;7.064;2023-09-30T08:53:23;26.90;99.90
7331;DHT22;3706;49.198;7.064;2023-09-30T08:55:53;27.20;99.50
7331;DHT22;3706;49.198;7.064;2023-09-30T08:58:23;27.40;98.90
7331;DHT22;3706;49.198;7.064;2023-09-30T09:00:50;27.60;97.80
7331;DHT22;3706;49.198;7.064;2023-09-30T09:03:19;27.80;97.00
7331;DHT22;3706;49.198;7.064;2023-09-30T09:05:46;28.00;96.30
7331;DHT22;3706;49.198;7.064;2023-09-30T09:08:14;28.20;95.40
7331;DHT22;3706;49.198;7.064;2023-09-30T09:10:54;28.30;94.40
7331;DHT22;3706;49.198;7.064;2023-09-30T09:13:22;28.20;93.80
7331;DHT22;3706;49.198;7.064;2023-09-30T09:15:49;28.20;93.00
7331;DHT22;3706;49.198;7.064;2023-09-30T09:18:31;27.80;92.60
7331;DHT22;3706;49.198;7.064;2023-09-30T09:21:09;27.40;92.40
7331;DHT22;3706;49.198;7.064;2023-09-30T09:23:42;27.20;92.30
7331;DHT22;3706;49.198;7.064;2023-09-30T09:26:10;27.00;92.50
7331;DHT22;3706;49.198;7.064;2023-09-30T09:28:37;27.00;92.10
7331;DHT22;3706;49.198;7.064;2023-09-30T09:31:21;26.70;91.00
7331;DHT22;3706;49.198;7.064;2023-09-30T09:33:49;26.20;91.60
7331;DHT22;3706;49.198;7.064;2023-09-30T09:36:17;26.20;92.50
7331;DHT22;3706;49.198;7.064;2023-09-30T09:38:47;26.10;92.40
7331;DHT22;3706;49.198;7.064;2023-09-30T09:41:16;26.00;92.50
7331;DHT22;3706;49.198;7.064;2023-09-30T09:43:43;26.00;92.90
7331;DHT22;3706;49.198;7.064;2023-09-30T09:46:10;26.20;93.00
7331;DHT22;3706;49.198;7.064;2023-09-30T09:48:39;26.40;92.50
7331;DHT22;3706;49.198;7.064;2023-09-30T09:51:08;26.70;92.10
7331;DHT22;3706;49.198;7.064;2023-09-30T09:53:39;26.90;91.70
7331;DHT22;3706;49.198;7.064;2023-09-30T09:56:09;27.00;90.80
7331;DHT22;3706;49.198;7.064;2023-09-30T09:58:38;26.90;90.20
7331;DHT22;3706;49.198;7.064;2023-09-30T10:01:06;26.90;90.20
7331;DHT22;3706;49.198;7.064;2023-09-30T10:03:35;27.10;90.20
7331;DHT22;3706;49.198;7.064;2023-09-30T10:06:04;27.20;89.70
7331;DHT22;3706;49.198;7.064;2023-09-30T10:08:35;27.10;89.70
7331;DHT22;3706;49.198;7.064;2023-09-30T10:11:03;26.90;89.40
7331;DHT22;3706;49.198;7.064;2023-09-30T10:13:53;26.40;90.30
7331;DHT22;3706;49.198;7.064;2023-09-30T10:16:49;26.00;91.30
7331;DHT22;3706;49.198;7.064;2023-09-30T10:19:20;25.60;91.60
7331;DHT22;3706;49.198;7.064;2023-09-30T10:22:20;25.50;92.10
7331;DHT22;3706;49.198;7.064;2023-09-30T10:24:48;25.40;92.10
7331;DHT22;3706;49.198;7.064;2023-09-30T10:27:34;25.30;92.20
7331;DHT22;3706;49.198;7.064;2023-09-30T10:30:08;25.30;92.60
7331;DHT22;3706;49.198;7.064;2023-09-30T10:33:13;25.50;92.10
7331;DHT22;3706;49.198;7.064;2023-09-30T10:35:45;25.50;90.80
7331;DHT22;3706;49.198;7.064;2023-09-30T10:38:37;25.50;90.00
7331;DHT22;3706;49.198;7.064;2023-09-30T10:41:07;25.30;90.90
7331;DHT22;3706;49.198;7.064;2023-09-30T10:43:36;25.10;90.90
7331;DHT22;3706;49.198;7.064;2023-09-30T10:46:32;24.80;91.10
7331;DHT22;3706;49.198;7.064;2023-09-30T10:49:30;24.50;91.10
7331;DHT22;3706;49.198;7.064;2023-09-30T10:52:01;24.10;91.30
7331;DHT22;3706;49.198;7.064;2023-09-30T10:54:29;24.30;90.90
7331;DHT22;3706;49.198;7.064;2023-09-30T10:56:57;24.80;90.70
7331;DHT22;3706;49.198;7.064;2023-09-30T10:59:26;25.60;87.40
7331;DHT22;3706;49.198;7.064;2023-09-30T11:01:54;26.20;87.00
7331;DHT22;3706;49.198;7.064;2023-09-30T11:04:21;26.80;86.30
7331;DHT22;3706;49.198;7.064;2023-09-30T11:06:48;27.60;84.60
7331;DHT22;3706;49.198;7.064;2023-09-30T11:09:17;28.30;80.10
7331;DHT22;3706;49.198;7.064;2023-09-30T11:11:47;28.00;77.60
7331;DHT22;3706;49.198;7.064;2023-09-30T11:14:19;27.20;79.40
7331;DHT22;3706;49.198;7.064;2023-09-30T11:16:47;26.40;80.60
7331;DHT22;3706;49.198;7.064;2023-09-30T11:19:15;25.80;81.50
7331;DHT22;3706;49.198;7.064;2023-09-30T11:21:42;25.20;82.00
7331;DHT22;3706;49.198;7.064;2023-09-30T11:24:10;24.50;83.90
7331;DHT22;3706;49.198;7.064;2023-09-30T11:26:38;24.00;84.20
7331;DHT22;3706;49.198;7.064;2023-09-30T11:29:07;23.50;86.20
7331;DHT22;3706;49.198;7.064;2023-09-30T11:31:37;23.10;86.40
7331;DHT22;3706;49.198;7.064;2023-09-30T11:34:04;22.70;88.40
7331;DHT22;3706;49.198;7.064;2023-09-30T11:36:34;22.30;89.30
7331;DHT22;3706;49.198;7.064;2023-09-30T11:39:01;22.10;89.90
7331;DHT22;3706;49.198;7.064;2023-09-30T11:41:36;21.90;90.50
7331;DHT22;3706;49.198;7.064;2023-09-30T11:44:08;21.90;90.90
7331;DHT22;3706;49.198;7.064;2023-09-30T11:46:49;21.90;91.10
7331;DHT22;3706;49.198;7.064;2023-09-30T11:49:24;22.10;91.30
7331;DHT22;3706;49.198;7.064;2023-09-30T11:51:54;22.60;91.60
7331;DHT22;3706;49.198;7.064;2023-09-30T11:54:21;23.30;90.10
7331;DHT22;3706;49.198;7.064;2023-09-30T11:56:48;23.90;87.70
7331;DHT22;3706;49.198;7.064;2023-09-30T11:59:17;24.40;86.70
7331;DHT22;3706;49.198;7.064;2023-09-30T12:01:45;24.90;86.30
7331;DHT22;3706;49.198;7.064;2023-09-30T12:04:14;25.30;84.40
7331;DHT22;3706;49.198;7.064;2023-09-30T12:06:43;25.70;83.20
7331;DHT22;3706;49.198;7.064;2023-09-30T12:09:11;25.90;82.70
7331;DHT22;3706;49.198;7.064;2023-09-30T12:11:40;26.20;81.50
7331;DHT22;3706;49.198;7.064;2023-09-30T12:14:10;26.60;80.30
7331;DHT22;3706;49.198;7.064;2023-09-30T12:16:37;27.30;79.00
7331;DHT22;3706;49.198;7.064;2023-09-30T12:19:04;28.00;76.80
7331;DHT22;3706;49.198;7.064;2023-09-30T12:21:32;28.40;75.00
7331;DHT22;3706;49.198;7.064;2023-09-30T12:23:59;28.60;74.40
7331;DHT22;3706;49.198;7.064;2023-09-30T12:26:29;28.60;74.50
7331;DHT22;3706;49.198;7.064;2023-09-30T12:28:56;28.20;74.20
7331;DHT22;3706;49.198;7.064;2023-09-30T12:31:23;27.50;75.40
7331;DHT22;3706;49.198;7.064;2023-09-30T12:33:50;26.50;77.30
7331;DHT22;3706;49.198;7.064;2023-09-30T12:36:19;25.60;79.70
7331;DHT22;3706;49.198;7.064;2023-09-30T12:38:47;24.80;81.90
7331;DHT22;3706;49.198;7.064;2023-09-30T12:41:14;24.50;82.50
7331;DHT22;3706;49.198;7.064;2023-09-30T12:43:43;24.70;82.50
7331;DHT22;3706;49.198;7.064;2023-09-30T12:46:10;24.80;83.00
7331;DHT22;3706;49.198;7.064;2023-09-30T12:48:39;25.00;82.80
7331;DHT22;3706;49.198;7.064;2023-09-30T12:51:06;25.00;83.00
7331;DHT22;3706;49.198;7.064;2023-09-30T12:53:34;25.10;82.30
7331;DHT22;3706;49.198;7.064;2023-09-30T12:56:01;25.30;80.70
7331;DHT22;3706;49.198;7.064;2023-09-30T12:58:28;25.80;79.60
7331;DHT22;3706;49.198;7.064;2023-09-30T13:00:57;26.30;79.50
7331;DHT22;3706;49.198;7.064;2023-09-30T13:03:24;26.70;78.20
7331;DHT22;3706;49.198;7.064;2023-09-30T13:05:51;26.90;76.80
7331;DHT22;3706;49.198;7.064;2023-09-30T13:08:18;27.10;77.20
7331;DHT22;3706;49.198;7.064;2023-09-30T13:10:45;27.40;76.50
7331;DHT22;3706;49.198;7.064;2023-09-30T13:13:16;27.80;74.20
7331;DHT22;3706;49.198;7.064;2023-09-30T13:15:43;28.10;72.50
7331;DHT22;3706;49.198;7.064;2023-09-30T13:18:11;28.30;71.70
7331;DHT22;3706;49.198;7.064;2023-09-30T13:20:38;28.50;71.30
7331;DHT22;3706;49.198;7.064;2023-09-30T13:23:05;28.40;71.20
7331;DHT22;3706;49.198;7.064;2023-09-30T13:25:32;28.00;72.00
7331;DHT22;3706;49.198;7.064;2023-09-30T13:27:59;27.50;73.30
7331;DHT22;3706;49.198;7.064;2023-09-30T13:30:27;26.70;74.70
7331;DHT22;3706;49.198;7.064;2023-09-30T13:32:58;25.80;77.30
7331;DHT22;3706;49.198;7.064;2023-09-30T13:35:27;25.20;79.80
7331;DHT22;3706;49.198;7.064;2023-09-30T13:37:54;24.90;80.30
7331;DHT22;3706;49.198;7.064;2023-09-30T13:40:20;25.10;80.50
7331;DHT22;3706;49.198;7.064;2023-09-30T13:42:47;25.40;79.50
7331;DHT22;3706;49.198;7.064;2023-09-30T13:45:15;25.60;78.30
7331;DHT22;3706;49.198;7.064;2023-09-30T13:47:43;25.60;77.30
7331;DHT22;3706;49.198;7.064;2023-09-30T13:50:10;25.70;77.40
7331;DHT22;3706;49.198;7.064;2023-09-30T13:52:41;25.70;77.50
7331;DHT22;3706;49.198;7.064;2023-09-30T13:55:09;25.80;76.80
7331;DHT22;3706;49.198;7.064;2023-09-30T13:57:36;26.00;77.60
7331;DHT22;3706;49.198;7.064;2023-09-30T14:00:03;26.20;76.90
7331;DHT22;3706;49.198;7.064;2023-09-30T14:02:32;26.40;76.10
7331;DHT22;3706;49.198;7.064;2023-09-30T14:04:59;26.40;75.70
7331;DHT22;3706;49.198;7.064;2023-09-30T14:07:28;26.50;75.50
7331;DHT22;3706;49.198;7.064;2023-09-30T14:09:56;26.60;74.20
7331;DHT22;3706;49.198;7.064;2023-09-30T14:12:23;26.50;74.30
7331;DHT22;3706;49.198;7.064;2023-09-30T14:14:50;26.30;75.20
7331;DHT22;3706;49.198;7.064;2023-09-30T14:17:17;25.80;76.60
7331;DHT22;3706;49.198;7.064;2023-09-30T14:19:44;25.20;77.00
7331;DHT22;3706;49.198;7.064;2023-09-30T14:22:11;24.80;77.50
7331;DHT22;3706;49.198;7.064;2023-09-30T14:24:39;24.70;78.40
7331;DHT22;3706;49.198;7.064;2023-09-30T14:27:10;24.60;78.70
7331;DHT22;3706;49.198;7.064;2023-09-30T14:29:39;24.50;79.40
7331;DHT22;3706;49.198;7.064;2023-09-30T14:32:07;24.40;80.20
7331;DHT22;3706;49.198;7.064;2023-09-30T14:34:34;24.50;80.30
7331;DHT22;3706;49.198;7.064;2023-09-30T14:37:04;24.40;80.80
7331;DHT22;3706;49.198;7.064;2023-09-30T14:39:34;24.40;81.10
7331;DHT22;3706;49.198;7.064;2023-09-30T14:42:01;24.30;81.10
7331;DHT22;3706;49.198;7.064;2023-09-30T14:44:29;24.20;80.40
7331;DHT22;3706;49.198;7.064;2023-09-30T14:46:56;24.00;80.30
7331;DHT22;3706;49.198;7.064;2023-09-30T14:49:23;23.80;81.50
7331;DHT22;3706;49.198;7.064;2023-09-30T14:51:50;23.70;81.90
7331;DHT22;3706;49.198;7.064;2023-09-30T14:54:17;23.50;83.00
7331;DHT22;3706;49.198;7.064;2023-09-30T14:56:44;23.30;82.20
7331;DHT22;3706;49.198;7.064;2023-09-30T14:59:11;23.20;82.00
7331;DHT22;3706;49.198;7.064;2023-09-30T15:01:40;23.00;82.40
7331;DHT22;3706;49.198;7.064;2023-09-30T15:04:07;22.90;82.10
7331;DHT22;3706;49.198;7.064;2023-09-30T15:06:34;22.80;82.30
7331;DHT22;3706;49.198;7.064;2023-09-30T15:09:01;22.70;83.30
7331;DHT22;3706;49.198;7.064;2023-09-30T15:11:29;22.60;84.20
7331;DHT22;3706;49.198;7.064;2023-09-30T15:13:56;22.40;83.80
7331;DHT22;3706;49.198;7.064;2023-09-30T15:16:23;22.30;84.90
7331;DHT22;3706;49.198;7.064;2023-09-30T15:18:52;22.10;85.50
7331;DHT22;3706;49.198;7.064;2023-09-30T15:21:19;21.90;85.90
7331;DHT22;3706;49.198;7.064;2023-09-30T15:23:46;21.80;87.90
7331;DHT22;3706;49.198;7.064;2023-09-30T15:26:13;21.60;89.10
7331;DHT22;3706;49.198;7.064;2023-09-30T15:28:41;21.40;90.30
7331;DHT22;3706;49.198;7.064;2023-09-30T15:31:10;21.20;90.40
7331;DHT22;3706;49.198;7.064;2023-09-30T15:33:37;21.00;90.30
7331;DHT22;3706;49.198;7.064;2023-09-30T15:36:12;20.90;91.00
7331;DHT22;3706;49.198;7.064;2023-09-30T15:38:40;20.70;91.70
7331;DHT22;3706;49.198;7.064;2023-09-30T15:41:06;20.60;92.20
7331;DHT22;3706;49.198;7.064;2023-09-30T15:43:34;20.50;92.20
7331;DHT22;3706;49.198;7.064;2023-09-30T15:46:01;20.30;92.50
7331;DHT22;3706;49.198;7.064;2023-09-30T15:48:28;20.20;92.90
7331;DHT22;3706;49.198;7.064;2023-09-30T15:50:56;20.10;93.00
7331;DHT22;3706;49.198;7.064;2023-09-30T15:53:24;20.00;93.20
7331;DHT22;3706;49.198;7.064;2023-09-30T15:55:53;19.90;93.50
7331;DHT22;3706;49.198;7.064;2023-09-30T15:58:20;19.80;93.70
7331;DHT22;3706;49.198;7.064;2023-09-30T16:00:47;19.70;94.20
7331;DHT22;3706;49.198;7.064;2023-09-30T16:03:14;19.50;94.20
7331;DHT22;3706;49.198;7.064;2023-09-30T16:05:41;19.50;94.70
7331;DHT22;3706;49.198;7.064;2023-09-30T16:08:08;19.40;95.00
7331;DHT22;3706;49.198;7.064;2023-09-30T16:10:37;19.20;95.00